Time;durP1;ratioP1;P1;durP2;ratioP2;P2;SDS_P1;SDS_P2;PMS_P1;PMS_P2;Temp;Humidity;BMP_temperature;BMP_pressure;BME280_temperature;BME280_humidity;BME280_pressure;Samples;Min_cycle;Max_cycle;Signal;HPM_P1;HPM_P2
2021/09/27 00:00:46;;;;;;;;;;;;;;;17.92;100.00;97990.97;4981383;28;19930;-91
2021/09/27 00:03:14;;;;;;;;;;;;;;;18.57;100.00;98001.34;4968610;28;20008;-91
2021/09/27 00:05:41;;;;;;;;;;;;;;;18.56;100.00;97991.34;4995573;28;20546;-91
2021/09/27 00:08:08;;;;;;;;;;;;;;;18.84;100.00;97978.13;4986206;28;19925;-90
2021/09/27 00:10:41;;;;;;;;;;;;;;;18.97;100.00;97998.31;4964655;28;19926;-90
2021/09/27 00:13:09;;;;;;;;;;;;;;;18.87;100.00;97971.47;4983574;28;20266;-89
2021/09/27 00:15:38;;;;;;;;;;;;;;;18.67;100.00;97984.97;5000286;28;19925;-91
2021/09/27 00:18:06;;;;;;;;;;;;;;;19.04;100.00;97971.56;4984409;28;20301;-90
2021/09/27 00:20:35;;;;;;;;;;;;;;;18.76;100.00;97977.09;5001116;28;19926;-90
2021/09/27 00:23:02;;;;;;;;;;;;;;;19.40;100.00;97965.84;4981129;28;19926;-90
2021/09/27 00:25:30;;;;;;;;;;;;;;;19.10;100.00;97955.41;4984486;28;19926;-90
2021/09/27 00:27:56;;;;;;;;;;;;;;;18.62;100.00;97965.91;4980971;28;19933;-90
2021/09/27 00:30:24;;;;;;;;;;;;;;;19.08;100.00;97958.75;4982381;28;19925;-90
2021/09/27 00:32:51;;;;;;;;;;;;;;;18.53;100.00;97949.91;4967638;28;20012;-90
2021/09/27 00:35:24;;;;;;;;;;;;;;;19.10;100.00;97942.00;4983523;28;19925;-91
2021/09/27 00:37:51;;;;;;;;;;;;;;;18.91;100.00;97938.06;4996528;28;19926;-89
2021/09/27 00:40:22;;;;;;;;;;;;;;;18.58;100.00;97943.53;4993483;28;20361;-92
2021/09/27 00:42:50;;;;;;;;;;;;;;;18.52;100.00;97934.22;4967505;28;20367;-91
2021/09/27 00:45:19;;;;;;;;;;;;;;;19.03;100.00;97925.53;4972726;28;19926;-92
2021/09/27 00:47:48;;;;;;;;;;;;;;;19.13;100.00;97926.84;4967886;28;19926;-92
2021/09/27 00:50:16;;;;;;;;;;;;;;;19.29;100.00;97923.34;4988657;28;19961;-91
2021/09/27 00:52:44;;;;;;;;;;;;;;;19.14;100.00;97922.75;4978452;28;20027;-92
2021/09/27 00:55:14;;;;;;;;;;;;;;;18.62;100.00;97918.59;4997181;28;19947;-91
2021/09/27 00:57:41;;;;;;;;;;;;;;;18.65;100.00;97913.97;4984724;28;19925;-92
2021/09/27 01:00:10;;;;;;;;;;;;;;;18.56;100.00;97906.47;4980219;28;19925;-91
2021/09/27 01:02:38;;;;;;;;;;;;;;;18.74;100.00;97908.09;4983461;28;20403;-91
2021/09/27 01:05:08;;;;;;;;;;;;;;;18.69;100.00;97914.53;4983162;28;20688;-92
2021/09/27 01:07:44;;;;;;;;;;;;;;;18.42;100.00;97915.13;4995916;28;19926;-91
2021/09/27 01:10:14;;;;;;;;;;;;;;;18.40;100.00;97887.34;4976034;28;19953;-90
2021/09/27 01:12:46;;;;;;;;;;;;;;;18.71;100.00;97895.75;4983155;28;20393;-91
2021/09/27 01:15:33;;;;;;;;;;;;;;;18.90;100.00;97884.81;4985807;28;19926;-91
2021/09/27 01:18:19;;;;;;;;;;;;;;;19.02;100.00;97892.81;4983062;28;20052;-89
2021/09/27 01:20:58;;;;;;;;;;;;;;;19.00;100.00;97861.44;4983165;28;19925;-90
2021/09/27 01:23:44;;;;;;;;;;;;;;;18.92;100.00;97880.19;4966886;28;19975;-90
2021/09/27 01:26:30;;;;;;;;;;;;;;;18.70;100.00;97876.47;4959768;28;20377;-91
2021/09/27 01:29:23;;;;;;;;;;;;;;;18.70;100.00;97882.13;4990560;28;19926;-90
2021/09/27 01:31:56;;;;;;;;;;;;;;;18.66;100.00;97865.38;4985606;28;19926;-90
2021/09/27 01:34:27;;;;;;;;;;;;;;;18.56;100.00;97883.84;4969423;28;19925;-92
2021/09/27 01:37:10;;;;;;;;;;;;;;;18.82;100.00;97861.09;4978830;28;20408;-91
2021/09/27 01:39:42;;;;;;;;;;;;;;;18.73;100.00;97853.59;4998656;28;19925;-91
2021/09/27 01:42:32;;;;;;;;;;;;;;;18.66;100.00;97845.56;4977273;28;19933;-91
2021/09/27 01:45:05;;;;;;;;;;;;;;;18.67;100.00;97849.97;4991476;28;19926;-92
2021/09/27 01:47:47;;;;;;;;;;;;;;;19.14;100.00;97834.97;4985427;28;19931;-90
2021/09/27 01:50:17;;;;;;;;;;;;;;;18.65;100.00;97818.56;4985655;28;19926;-90
2021/09/27 01:52:50;;;;;;;;;;;;;;;18.74;100.00;97821.19;5001953;28;19929;-91
2021/09/27 01:55:29;;;;;;;;;;;;;;;18.26;100.00;97803.44;4998863;28;19965;-90
2021/09/27 01:57:56;;;;;;;;;;;;;;;18.84;100.00;97814.00;4968783;28;20015;-90
2021/09/27 02:00:27;;;;;;;;;;;;;;;18.92;100.00;97820.75;5000856;28;20015;-91
2021/09/27 02:03:16;;;;;;;;;;;;;;;18.92;100.00;97809.41;4985415;28;20053;-90
2021/09/27 02:05:48;;;;;;;;;;;;;;;18.53;100.00;97805.66;4981975;28;19925;-88
2021/09/27 02:08:22;;;;;;;;;;;;;;;18.68;100.00;97806.25;4969329;28;19926;-91
2021/09/27 02:10:53;;;;;;;;;;;;;;;18.79;100.00;97817.63;4971475;28;19979;-91
2021/09/27 02:13:27;;;;;;;;;;;;;;;19.00;100.00;97792.72;4969210;28;19925;-92
2021/09/27 02:15:54;;;;;;;;;;;;;;;18.31;100.00;97770.81;5000971;28;19929;-90
2021/09/27 02:18:51;;;;;;;;;;;;;;;18.27;100.00;97801.34;5008087;28;19925;-90
2021/09/27 02:21:24;;;;;;;;;;;;;;;18.50;100.00;97801.03;4993699;28;20011;-92
2021/09/27 02:23:54;;;;;;;;;;;;;;;19.01;100.00;97791.44;4985263;28;19925;-90
2021/09/27 02:26:22;;;;;;;;;;;;;;;19.02;100.00;97751.28;4985205;28;19925;-91
2021/09/27 02:28:49;;;;;;;;;;;;;;;18.74;100.00;97741.19;4985401;28;20368;-89
2021/09/27 02:31:29;;;;;;;;;;;;;;;18.57;100.00;97755.28;4981773;28;19932;-90
2021/09/27 02:33:57;;;;;;;;;;;;;;;18.61;100.00;97721.88;5009917;28;20400;-91
2021/09/27 02:36:24;;;;;;;;;;;;;;;18.31;100.00;97734.06;4984661;28;19935;-91
2021/09/27 02:38:54;;;;;;;;;;;;;;;18.87;100.00;97722.44;5000739;28;19925;-90
2021/09/27 02:41:30;;;;;;;;;;;;;;;18.69;100.00;97727.81;4984065;28;19980;-90
2021/09/27 02:43:58;;;;;;;;;;;;;;;19.12;100.00;97729.97;5016805;28;19925;-90
2021/09/27 02:46:29;;;;;;;;;;;;;;;19.20;100.00;97708.38;4968323;28;19939;-91
2021/09/27 02:49:09;;;;;;;;;;;;;;;19.02;100.00;97706.00;4984505;28;19931;-90
2021/09/27 02:51:43;;;;;;;;;;;;;;;18.96;100.00;97685.41;4965231;28;19925;-89
2021/09/27 02:54:12;;;;;;;;;;;;;;;18.64;100.00;97692.56;5007574;28;20067;-90
2021/09/27 02:56:48;;;;;;;;;;;;;;;19.22;100.00;97683.13;4984109;28;19975;-90
2021/09/27 02:59:24;;;;;;;;;;;;;;;18.67;100.00;97680.22;4991568;28;19925;-90
2021/09/27 03:01:57;;;;;;;;;;;;;;;18.41;100.00;97693.00;5000430;28;19925;-91
2021/09/27 03:04:36;;;;;;;;;;;;;;;18.99;100.00;97673.06;4980701;28;20411;-89
2021/09/27 03:07:07;;;;;;;;;;;;;;;19.12;100.00;97655.59;4996468;28;20384;-90
2021/09/27 03:09:42;;;;;;;;;;;;;;;18.62;100.00;97637.78;4964591;28;19925;-89
2021/09/27 03:12:28;;;;;;;;;;;;;;;18.44;100.00;97638.25;4983894;28;20293;-91
2021/09/27 03:14:54;;;;;;;;;;;;;;;18.81;100.00;97650.16;4984271;28;19929;-90
2021/09/27 03:17:28;;;;;;;;;;;;;;;18.82;100.00;97627.03;5000949;28;19948;-91
2021/09/27 03:20:01;;;;;;;;;;;;;;;19.10;100.00;97627.78;4989064;28;19948;-91
2021/09/27 03:22:39;;;;;;;;;;;;;;;18.85;100.00;97616.72;5009293;28;19932;-90
2021/09/27 03:25:15;;;;;;;;;;;;;;;18.63;100.00;97623.13;4998909;28;19929;-89
2021/09/27 03:27:52;;;;;;;;;;;;;;;18.90;100.00;97616.72;4986281;28;20312;-90
2021/09/27 03:30:38;;;;;;;;;;;;;;;18.62;100.00;97615.94;5012312;28;19933;-88
2021/09/27 03:33:12;;;;;;;;;;;;;;;18.96;100.00;97631.63;4973738;28;19925;-91
2021/09/27 03:35:49;;;;;;;;;;;;;;;19.10;100.00;97632.69;4984210;28;19968;-90
2021/09/27 03:38:23;;;;;;;;;;;;;;;18.62;100.00;97621.59;4987887;28;19933;-91
2021/09/27 03:41:02;;;;;;;;;;;;;;;19.00;100.00;97614.41;5004174;28;19925;-89
2021/09/27 03:43:47;;;;;;;;;;;;;;;19.34;100.00;97619.56;4982245;28;19925;-89
2021/09/27 03:46:15;;;;;;;;;;;;;;;19.17;100.00;97575.56;5004046;28;19929;-89
2021/09/27 03:48:47;;;;;;;;;;;;;;;18.93;100.00;97590.22;5000651;28;20012;-90
2021/09/27 03:51:23;;;;;;;;;;;;;;;19.85;100.00;97577.72;4998305;28;20284;-91
2021/09/27 03:53:56;;;;;;;;;;;;;;;18.71;100.00;97515.88;4988081;28;19929;-89
2021/09/27 03:56:29;;;;;;;;;;;;;;;18.94;100.00;97555.00;5004068;28;19975;-89
2021/09/27 03:59:02;;;;;;;;;;;;;;;19.57;100.00;97553.09;4971735;28;19925;-91
2021/09/27 04:01:29;;;;;;;;;;;;;;;19.73;100.00;97554.31;4989951;28;19932;-89
2021/09/27 04:04:03;;;;;;;;;;;;;;;19.79;100.00;97549.41;4987520;28;19925;-88
2021/09/27 04:06:36;;;;;;;;;;;;;;;18.96;100.00;97543.16;4987879;28;19925;-91
2021/09/27 04:09:10;;;;;;;;;;;;;;;18.73;100.00;97548.06;4971624;28;19929;-91
2021/09/27 04:11:55;;;;;;;;;;;;;;;18.68;100.00;97516.91;4968475;28;19937;-90
2021/09/27 04:14:41;;;;;;;;;;;;;;;19.18;100.00;97545.94;5011771;28;20014;-89
2021/09/27 04:17:25;;;;;;;;;;;;;;;19.32;100.00;97537.22;5004068;28;19932;-89
2021/09/27 04:20:13;;;;;;;;;;;;;;;19.04;100.00;97516.63;5006185;28;19932;-89
2021/09/27 04:23:06;;;;;;;;;;;;;;;18.90;100.00;97517.66;4986888;28;19932;-89
2021/09/27 04:25:39;;;;;;;;;;;;;;;19.20;100.00;97507.34;4987617;28;19932;-90
2021/09/27 04:28:21;;;;;;;;;;;;;;;18.97;100.00;97517.16;4988931;28;19929;-91
2021/09/27 04:30:55;;;;;;;;;;;;;;;19.45;100.00;97519.66;5005200;28;19932;-90
2021/09/27 04:33:22;;;;;;;;;;;;;;;19.01;100.00;97506.34;4980635;28;20339;-90
2021/09/27 04:36:18;;;;;;;;;;;;;;;19.15;100.00;97502.47;4991341;28;19925;-90
2021/09/27 04:38:46;;;;;;;;;;;;;;;18.60;100.00;97487.63;4997480;28;19929;-90
2021/09/27 04:41:23;;;;;;;;;;;;;;;18.81;100.00;97481.16;4989103;28;19999;-92
2021/09/27 04:44:00;;;;;;;;;;;;;;;18.84;100.00;97479.38;5015232;28;19925;-91
2021/09/27 04:46:32;;;;;;;;;;;;;;;19.05;100.00;97506.09;4986545;28;19925;-89
2021/09/27 04:49:09;;;;;;;;;;;;;;;18.44;100.00;97486.34;4992560;28;19926;-91
2021/09/27 04:51:51;;;;;;;;;;;;;;;18.84;100.00;97491.44;5002354;28;19932;-91
2021/09/27 04:54:27;;;;;;;;;;;;;;;18.60;100.00;97473.47;5019011;28;19925;-92
2021/09/27 04:56:58;;;;;;;;;;;;;;;18.64;100.00;97494.56;4986646;28;19937;-92
2021/09/27 04:59:43;;;;;;;;;;;;;;;18.69;100.00;97493.78;4966743;28;19929;-91
2021/09/27 05:02:10;;;;;;;;;;;;;;;19.26;100.00;97445.81;4988849;28;19931;-92
2021/09/27 05:04:48;;;;;;;;;;;;;;;18.80;100.00;97454.16;5002528;28;19947;-92
2021/09/27 05:07:27;;;;;;;;;;;;;;;18.69;100.00;97437.19;4965116;28;19936;-92
2021/09/27 05:10:13;;;;;;;;;;;;;;;19.05;100.00;97455.16;4986118;28;20359;-92
2021/09/27 05:12:41;;;;;;;;;;;;;;;18.92;100.00;97447.19;5002624;28;19925;-92
2021/09/27 05:15:15;;;;;;;;;;;;;;;18.96;100.00;97425.03;5001759;28;20343;-92
2021/09/27 05:17:45;;;;;;;;;;;;;;;19.13;100.00;97442.00;4982769;28;19926;-92
2021/09/27 05:20:12;;;;;;;;;;;;;;;19.37;100.00;97417.47;4969759;28;19925;-90
2021/09/27 05:22:58;;;;;;;;;;;;;;;18.30;100.00;97394.03;4986296;28;20351;-92
2021/09/27 05:25:46;;;;;;;;;;;;;;;18.46;100.00;97410.25;5002120;28;19937;-91
2021/09/27 05:28:17;;;;;;;;;;;;;;;19.10;100.00;97407.00;4977340;28;20368;-95
2021/09/27 05:30:49;;;;;;;;;;;;;;;18.69;100.00;97399.66;4970738;28;19971;-94
2021/09/27 05:33:36;;;;;;;;;;;;;;;18.47;100.00;97371.41;4970942;28;19929;-92
2021/09/27 05:36:06;;;;;;;;;;;;;;;18.45;100.00;97368.34;5001909;28;19982;-92
2021/09/27 05:38:33;;;;;;;;;;;;;;;18.65;100.00;97371.63;4969915;28;19925;-92
2021/09/27 05:41:10;;;;;;;;;;;;;;;18.24;100.00;97395.31;4986265;28;20400;-95
2021/09/27 05:43:53;;;;;;;;;;;;;;;18.04;100.00;97382.19;4969583;28;20068;-94
2021/09/27 05:46:32;;;;;;;;;;;;;;;18.18;100.00;97381.19;4985832;28;19932;-85
2021/09/27 05:49:03;;;;;;;;;;;;;;;18.46;100.00;97381.97;4987257;28;19925;-91
2021/09/27 05:51:33;;;;;;;;;;;;;;;18.36;100.00;97349.56;4985615;28;20029;-83
2021/09/27 05:54:18;;;;;;;;;;;;;;;18.67;100.00;97354.16;4986437;28;20431;-88
2021/09/27 05:56:54;;;;;;;;;;;;;;;18.26;100.00;97347.50;4982077;28;19944;-84
2021/09/27 05:59:36;;;;;;;;;;;;;;;18.62;100.00;97343.63;4997543;28;19929;-84
2021/09/27 06:02:04;;;;;;;;;;;;;;;18.61;100.00;97336.44;5020413;28;19929;-84
2021/09/27 06:04:37;;;;;;;;;;;;;;;18.53;100.00;97324.09;5014470;28;20488;-80
2021/09/27 06:07:07;;;;;;;;;;;;;;;18.56;100.00;97318.19;5016959;28;19925;-84
2021/09/27 06:09:49;;;;;;;;;;;;;;;17.55;100.00;97320.81;5034886;28;19925;-82
2021/09/27 06:12:23;;;;;;;;;;;;;;;17.64;100.00;97300.78;5016897;28;19971;-82
2021/09/27 06:14:51;;;;;;;;;;;;;;;18.04;100.00;97305.16;5000499;28;19980;-83
2021/09/27 06:17:54;;;;;;;;;;;;;;;17.84;100.00;97283.59;5016538;28;19948;-83
2021/09/27 06:20:20;;;;;;;;;;;;;;;18.12;100.00;97266.59;4976518;28;19950;-82
2021/09/27 06:22:58;;;;;;;;;;;;;;;18.38;100.00;97273.50;4933052;28;19933;-82
2021/09/27 06:25:27;;;;;;;;;;;;;;;17.93;100.00;97244.53;4948104;28;19926;-83
2021/09/27 06:28:17;;;;;;;;;;;;;;;18.06;100.00;97302.56;4981210;28;20351;-84
2021/09/27 06:30:52;;;;;;;;;;;;;;;16.45;100.00;97326.81;4976483;28;19925;-84
2021/09/27 06:33:27;;;;;;;;;;;;;;;14.69;100.00;97266.91;4976454;28;20298;-81
2021/09/27 06:35:56;;;;;;;;;;;;;;;12.96;100.00;97226.78;4990133;28;20029;-82
2021/09/27 06:38:27;;;;;;;;;;;;;;;12.99;100.00;97276.25;4960378;28;19957;-83
2021/09/27 06:40:55;;;;;;;;;;;;;;;12.95;100.00;97332.50;4976523;28;19926;-82
2021/09/27 06:43:24;;;;;;;;;;;;;;;12.86;100.00;97343.03;4976263;28;19926;-84
2021/09/27 06:45:52;;;;;;;;;;;;;;;13.09;100.00;97342.22;4976338;28;19933;-82
2021/09/27 06:48:19;;;;;;;;;;;;;;;12.99;100.00;97354.75;4992047;28;20333;-82
2021/09/27 06:50:48;;;;;;;;;;;;;;;13.23;100.00;97358.31;4992439;28;20298;-82
2021/09/27 06:53:15;;;;;;;;;;;;;;;13.02;100.00;97348.22;4977797;28;20362;-82
2021/09/27 06:55:44;;;;;;;;;;;;;;;13.42;100.00;97340.06;5015375;28;20292;-85
2021/09/27 06:58:11;;;;;;;;;;;;;;;13.19;100.00;97352.13;5016356;28;19925;-84
2021/09/27 07:00:38;;;;;;;;;;;;;;;13.35;100.00;97360.84;4999885;28;19929;-84
2021/09/27 07:03:05;;;;;;;;;;;;;;;13.42;100.00;97393.34;4999688;28;20368;-84
2021/09/27 07:05:32;;;;;;;;;;;;;;;13.17;100.00;97399.47;5015987;28;19932;-83
2021/09/27 07:08:00;;;;;;;;;;;;;;;13.38;100.00;97406.78;5033618;28;19925;-84
2021/09/27 07:10:28;;;;;;;;;;;;;;;13.30;100.00;97397.22;4999472;28;19933;-84
2021/09/27 07:12:55;;;;;;;;;;;;;;;13.03;100.00;97403.03;5003984;28;19926;-84
2021/09/27 07:15:23;;;;;;;;;;;;;;;12.94;100.00;97409.47;4999488;28;19933;-84
2021/09/27 07:17:50;;;;;;;;;;;;;;;12.99;100.00;97382.78;4999707;28;19971;-84
2021/09/27 07:20:19;;;;;;;;;;;;;;;12.56;100.00;97358.97;5032986;28;19931;-82
2021/09/27 07:22:48;;;;;;;;;;;;;;;12.63;100.00;97364.22;5015801;28;20407;-83
2021/09/27 07:25:15;;;;;;;;;;;;;;;12.73;100.00;97393.72;4999420;28;19925;-83
2021/09/27 07:27:43;;;;;;;;;;;;;;;12.52;100.00;97378.78;4999418;28;19932;-83
2021/09/27 07:30:11;;;;;;;;;;;;;;;12.47;100.00;97390.63;5033597;28;19984;-83
2021/09/27 07:32:39;;;;;;;;;;;;;;;12.54;100.00;97409.88;5015667;28;19925;-83
2021/09/27 07:35:08;;;;;;;;;;;;;;;12.74;100.00;97396.06;5033470;28;19929;-82
2021/09/27 07:37:38;;;;;;;;;;;;;;;12.89;100.00;97404.50;4994300;28;20032;-84
2021/09/27 07:40:07;;;;;;;;;;;;;;;12.71;100.00;97380.19;5033985;28;20085;-84
2021/09/27 07:42:34;;;;;;;;;;;;;;;12.56;100.00;97393.38;5033486;28;19925;-84
2021/09/27 07:45:01;;;;;;;;;;;;;;;12.49;100.00;97418.16;5015846;28;19933;-84
2021/09/27 07:47:28;;;;;;;;;;;;;;;12.54;100.00;97390.25;4999241;28;19944;-86
2021/09/27 07:49:55;;;;;;;;;;;;;;;12.37;100.00;97389.13;5007272;28;20088;-85
2021/09/27 07:52:22;;;;;;;;;;;;;;;12.73;100.00;97394.50;5017135;28;19932;-84
2021/09/27 07:54:51;;;;;;;;;;;;;;;12.59;100.00;97372.81;5033285;28;19931;-84
2021/09/27 07:57:18;;;;;;;;;;;;;;;12.74;100.00;97398.84;5034538;28;19952;-83
2021/09/27 07:59:47;;;;;;;;;;;;;;;12.67;100.00;97385.22;5034155;28;19929;-83
2021/09/27 08:02:18;;;;;;;;;;;;;;;12.71;100.00;97391.41;5015755;28;19924;-83
2021/09/27 08:04:45;;;;;;;;;;;;;;;12.74;100.00;97401.66;5016260;28;20399;-83
2021/09/27 08:07:13;;;;;;;;;;;;;;;12.48;100.00;97416.63;5045639;28;20332;-83
2021/09/27 08:09:40;;;;;;;;;;;;;;;12.52;100.00;97431.22;5010622;28;20010;-83
2021/09/27 08:12:07;;;;;;;;;;;;;;;12.45;100.00;97439.94;5032779;28;19932;-83
2021/09/27 08:14:34;;;;;;;;;;;;;;;12.49;100.00;97458.16;5015945;28;19931;-83
2021/09/27 08:17:02;;;;;;;;;;;;;;;12.74;100.00;97477.31;5010948;28;19929;-83
2021/09/27 08:19:29;;;;;;;;;;;;;;;12.57;100.00;97481.75;5035852;28;19925;-83
2021/09/27 08:21:56;;;;;;;;;;;;;;;12.43;100.00;97493.66;5008386;28;19933;-83
2021/09/27 08:24:23;;;;;;;;;;;;;;;12.45;100.00;97502.34;5050429;28;19932;-83
2021/09/27 08:26:50;;;;;;;;;;;;;;;12.32;100.00;97521.41;5020664;28;19924;-82
2021/09/27 08:29:18;;;;;;;;;;;;;;;12.06;100.00;97528.63;5036967;28;19925;-81
2021/09/27 08:31:45;;;;;;;;;;;;;;;12.21;100.00;97526.72;5026978;28;19925;-82
2021/09/27 08:34:12;;;;;;;;;;;;;;;12.08;100.00;97522.56;5018877;28;19969;-82
2021/09/27 08:36:39;;;;;;;;;;;;;;;12.06;100.00;97537.03;5018385;28;20006;-82
2021/09/27 08:39:06;;;;;;;;;;;;;;;12.31;100.00;97559.03;5017002;28;19929;-79
2021/09/27 08:41:43;;;;;;;;;;;;;;;12.89;100.00;97546.69;5036088;28;19931;-80
2021/09/27 08:44:29;;;;;;;;;;;;;;;12.72;100.00;97555.47;5001489;28;19929;-80
2021/09/27 08:47:01;;;;;;;;;;;;;;;12.33;100.00;97545.34;5001759;28;19971;-80
2021/09/27 08:49:38;;;;;;;;;;;;;;;12.53;100.00;97554.00;5035989;28;19934;-80
2021/09/27 08:52:06;;;;;;;;;;;;;;;12.98;100.00;97571.88;5035534;28;19925;-81
2021/09/27 08:54:33;;;;;;;;;;;;;;;13.12;100.00;97582.41;5027966;28;19932;-81
2021/09/27 08:57:00;;;;;;;;;;;;;;;12.92;100.00;97593.41;4984889;28;20320;-81
2021/09/27 08:59:46;;;;;;;;;;;;;;;12.93;100.00;97608.94;5035955;28;19932;-81
2021/09/27 09:02:13;;;;;;;;;;;;;;;12.90;100.00;97593.09;5005658;28;19991;-81
2021/09/27 09:04:43;;;;;;;;;;;;;;;12.86;100.00;97623.31;5033601;28;19925;-82
2021/09/27 09:07:16;;;;;;;;;;;;;;;12.78;100.00;97643.25;5001244;28;19948;-82
2021/09/27 09:09:45;;;;;;;;;;;;;;;12.52;100.00;97624.50;5019036;28;20012;-80
2021/09/27 09:12:21;;;;;;;;;;;;;;;12.55;100.00;97635.56;5051896;28;20384;-79
2021/09/27 09:14:56;;;;;;;;;;;;;;;11.98;100.00;97653.34;5043267;28;20380;-83
2021/09/27 09:17:31;;;;;;;;;;;;;;;12.16;100.00;97667.34;5035531;28;19932;-85
2021/09/27 09:20:00;;;;;;;;;;;;;;;12.16;100.00;97684.13;5001312;28;19925;-86
2021/09/27 09:22:32;;;;;;;;;;;;;;;12.06;100.00;97682.59;5001462;28;19925;-84
2021/09/27 09:24:59;;;;;;;;;;;;;;;12.19;100.00;97674.78;5017468;28;19925;-80
2021/09/27 09:27:26;;;;;;;;;;;;;;;12.22;100.00;97713.06;5000757;28;20253;-80
2021/09/27 09:29:53;;;;;;;;;;;;;;;12.27;100.00;97698.44;5035475;28;20006;-79
2021/09/27 09:32:20;;;;;;;;;;;;;;;12.38;100.00;97697.97;5016320;28;19925;-79
2021/09/27 09:34:48;;;;;;;;;;;;;;;12.69;100.00;97727.34;5016284;28;19932;-80
2021/09/27 09:37:24;;;;;;;;;;;;;;;12.70;100.00;97720.53;4999712;28;20412;-80
2021/09/27 09:39:54;;;;;;;;;;;;;;;12.75;100.00;97727.50;5016247;28;19925;-79
2021/09/27 09:42:21;;;;;;;;;;;;;;;12.75;100.00;97749.94;5015924;28;19975;-80
2021/09/27 09:44:49;;;;;;;;;;;;;;;12.75;100.00;97742.28;5033430;28;19933;-80
2021/09/27 09:47:25;;;;;;;;;;;;;;;13.08;100.00;97758.44;5015724;28;20372;-80
2021/09/27 09:49:55;;;;;;;;;;;;;;;12.95;100.00;97777.47;5033436;28;20308;-79
2021/09/27 09:52:25;;;;;;;;;;;;;;;12.96;100.00;97767.81;5033918;28;19925;-79
2021/09/27 09:54:54;;;;;;;;;;;;;;;12.84;100.00;97779.97;5015580;28;19932;-80
2021/09/27 09:57:40;;;;;;;;;;;;;;;12.81;100.00;97772.50;5033493;28;19987;-79
2021/09/27 10:00:10;;;;;;;;;;;;;;;12.90;100.00;97776.06;5033340;28;19925;-79
2021/09/27 10:02:41;;;;;;;;;;;;;;;12.94;100.00;97785.09;5015970;28;19931;-79
2021/09/27 10:05:18;;;;;;;;;;;;;;;13.04;100.00;97795.06;4999047;28;19925;-79
2021/09/27 10:07:54;;;;;;;;;;;;;;;13.30;100.00;97809.53;5032094;28;20344;-80
2021/09/27 10:10:38;;;;;;;;;;;;;;;13.26;100.00;97823.69;4995701;28;20016;-79
2021/09/27 10:13:25;;;;;;;;;;;;;;;13.32;100.00;97826.63;5024237;28;20478;-79
2021/09/27 10:15:52;;;;;;;;;;;;;;;13.37;100.00;97845.66;5015494;28;20392;-79
2021/09/27 10:18:27;;;;;;;;;;;;;;;13.54;100.00;97849.66;5015321;28;19929;-79
2021/09/27 10:20:57;;;;;;;;;;;;;;;13.65;100.00;97856.31;5019483;28;19925;-79
2021/09/27 10:23:30;;;;;;;;;;;;;;;13.62;100.00;97857.28;5031928;28;20388;-80
2021/09/27 10:26:08;;;;;;;;;;;;;;;13.76;100.00;97865.03;5032668;28;20376;-79
2021/09/27 10:28:37;;;;;;;;;;;;;;;14.02;100.00;97851.34;5032924;28;19931;-80
2021/09/27 10:31:04;;;;;;;;;;;;;;;13.75;100.00;97848.66;5014558;28;19925;-80
2021/09/27 10:33:33;;;;;;;;;;;;;;;14.01;100.00;97867.41;5015164;28;19979;-80
2021/09/27 10:36:04;;;;;;;;;;;;;;;14.14;100.00;97870.00;5032833;28;19979;-83
2021/09/27 10:38:34;;;;;;;;;;;;;;;14.41;100.00;97883.94;5015192;28;19933;-83
2021/09/27 10:41:09;;;;;;;;;;;;;;;14.78;100.00;97895.72;5032532;28;20028;-83
2021/09/27 10:43:36;;;;;;;;;;;;;;;14.72;100.00;97878.75;5015062;28;19925;-83
2021/09/27 10:46:03;;;;;;;;;;;;;;;14.67;100.00;97885.03;5015045;28;19935;-82
2021/09/27 10:48:33;;;;;;;;;;;;;;;15.07;100.00;97887.38;4998373;28;20270;-83
2021/09/27 10:51:03;;;;;;;;;;;;;;;15.27;100.00;97887.50;4998700;28;19947;-83
2021/09/27 10:53:33;;;;;;;;;;;;;;;15.33;100.00;97885.56;4998501;28;20331;-83
2021/09/27 10:56:10;;;;;;;;;;;;;;;15.41;100.00;97873.50;5014976;28;19925;-83
2021/09/27 10:58:47;;;;;;;;;;;;;;;15.26;100.00;97883.94;5014962;28;19929;-83
2021/09/27 11:01:43;;;;;;;;;;;;;;;15.12;100.00;97901.56;5014846;28;19926;-83
2021/09/27 11:04:34;;;;;;;;;;;;;;;15.50;100.00;97903.56;4998560;28;20388;-82
2021/09/27 11:07:14;;;;;;;;;;;;;;;15.32;100.00;97901.69;4995726;28;20434;-82
2021/09/27 11:09:43;;;;;;;;;;;;;;;15.53;100.00;97905.44;5014811;28;19929;-83
2021/09/27 11:12:29;;;;;;;;;;;;;;;15.21;100.00;97912.72;5014906;28;19925;-82
2021/09/27 11:14:56;;;;;;;;;;;;;;;14.79;100.00;97916.94;5031200;28;19954;-82
2021/09/27 11:17:32;;;;;;;;;;;;;;;15.23;100.00;97935.53;5032393;28;19986;-82
2021/09/27 11:20:00;;;;;;;;;;;;;;;15.25;100.00;97933.00;5014695;28;19929;-82
2021/09/27 11:22:34;;;;;;;;;;;;;;;15.41;100.00;97943.06;5014343;28;19925;-83
2021/09/27 11:25:27;;;;;;;;;;;;;;;15.49;100.00;97936.59;5014637;28;19933;-83
2021/09/27 11:28:10;;;;;;;;;;;;;;;15.69;100.00;97941.56;5003052;28;19979;-83
2021/09/27 11:30:40;;;;;;;;;;;;;;;16.20;100.00;97937.09;5031947;28;19944;-83
2021/09/27 11:33:26;;;;;;;;;;;;;;;16.44;100.00;97944.63;4998376;28;19932;-83
2021/09/27 11:35:56;;;;;;;;;;;;;;;15.82;100.00;97942.84;5028468;28;19931;-83
2021/09/27 11:38:38;;;;;;;;;;;;;;;15.85;100.00;97932.63;5014446;28;20365;-83
2021/09/27 11:41:11;;;;;;;;;;;;;;;16.58;100.00;97935.38;5014986;28;20102;-83
2021/09/27 11:44:01;;;;;;;;;;;;;;;16.31;100.00;97941.34;4986127;28;19932;-83
2021/09/27 11:46:33;;;;;;;;;;;;;;;16.49;100.00;97933.47;5018245;28;19925;-83
2021/09/27 11:49:21;;;;;;;;;;;;;;;16.85;100.00;97958.34;5018149;28;19925;-83
2021/09/27 11:52:11;;;;;;;;;;;;;;;16.60;100.00;97958.97;5035623;28;19940;-83
2021/09/27 11:54:57;;;;;;;;;;;;;;;17.05;100.00;97954.75;5018176;28;19925;-82
2021/09/27 11:57:23;;;;;;;;;;;;;;;16.55;100.00;97959.69;5018231;28;19987;-83
2021/09/27 12:00:03;;;;;;;;;;;;;;;16.80;100.00;97966.69;5001608;28;19925;-83
2021/09/27 12:02:39;;;;;;;;;;;;;;;16.63;100.00;97943.91;5018007;28;19964;-83
2021/09/27 12:05:07;;;;;;;;;;;;;;;16.73;100.00;97975.59;4985747;28;19948;-83
2021/09/27 12:07:38;;;;;;;;;;;;;;;16.65;100.00;97977.25;5035471;28;19925;-83
2021/09/27 12:10:08;;;;;;;;;;;;;;;17.17;100.00;97979.81;5001671;28;20278;-83
2021/09/27 12:12:52;;;;;;;;;;;;;;;17.34;100.00;97999.78;5026688;28;19925;-83
2021/09/27 12:15:25;;;;;;;;;;;;;;;16.95;100.00;97984.38;5029361;28;19925;-83
2021/09/27 12:17:53;;;;;;;;;;;;;;;17.04;100.00;98004.00;5035662;28;19971;-83
2021/09/27 12:20:25;;;;;;;;;;;;;;;17.17;100.00;97979.81;5017366;28;19928;-83
2021/09/27 12:22:54;;;;;;;;;;;;;;;16.95;100.00;97995.66;5035369;28;19925;-83
2021/09/27 12:25:25;;;;;;;;;;;;;;;16.68;100.00;97993.19;5017507;28;19925;-83
2021/09/27 12:27:57;;;;;;;;;;;;;;;16.54;100.00;98013.75;5035124;28;20024;-83
2021/09/27 12:30:25;;;;;;;;;;;;;;;16.56;100.00;98002.75;5017740;28;19969;-83
2021/09/27 12:32:55;;;;;;;;;;;;;;;16.61;100.00;98024.63;5001368;28;19925;-83
2021/09/27 12:35:26;;;;;;;;;;;;;;;16.80;100.00;98028.75;5027001;28;20067;-83
2021/09/27 12:37:55;;;;;;;;;;;;;;;16.61;100.00;98021.81;5017487;28;19925;-83
2021/09/27 12:40:25;;;;;;;;;;;;;;;16.92;100.00;98024.88;5034862;28;20376;-83
2021/09/27 12:42:59;;;;;;;;;;;;;;;16.73;100.00;98023.53;5034753;28;19925;-83
2021/09/27 12:45:31;;;;;;;;;;;;;;;17.07;100.00;98025.59;5034881;28;19925;-83
2021/09/27 12:48:00;;;;;;;;;;;;;;;17.22;100.00;98038.38;5016902;28;19932;-83
2021/09/27 12:50:30;;;;;;;;;;;;;;;16.66;100.00;98040.88;5034637;28;19933;-83
2021/09/27 12:53:03;;;;;;;;;;;;;;;16.59;100.00;98047.66;5016137;28;19929;-82
2021/09/27 12:55:39;;;;;;;;;;;;;;;17.09;100.00;98056.91;5017476;28;19925;-83
2021/09/27 12:58:12;;;;;;;;;;;;;;;16.94;100.00;98056.16;5016847;28;19948;-83
2021/09/27 13:00:41;;;;;;;;;;;;;;;17.29;100.00;98071.06;5016858;28;19979;-83
2021/09/27 13:03:10;;;;;;;;;;;;;;;17.43;100.00;98087.16;5000618;28;20404;-83
2021/09/27 13:05:49;;;;;;;;;;;;;;;17.04;100.00;98060.44;5016638;28;19936;-83